Terminal Aerodrome Forecast
Issued by NWS

Current Version | Previous Version | Graphics & Text | Print | Product List | Glossary On
Versions: 1 2 3 4 5 6 7 8 9 10 11 12 13 14 15 16 17 18 19 20 21
000
FTUS41 KPBZ 142320
TAFHLG
TAF
KHLG 142320Z 1500/1524 VRB04KT P6SM SCT200
     FM151900 15006KT P6SM VCSH OVC040
     FM152200 15006KT 3SM -SN OVC020=

USA.gov is the U.S. government's official web portal to all federal, state and local government web resources and services.